Time;durP1;ratioP1;P1;durP2;ratioP2;P2;SDS_P1;SDS_P2;PMS_P1;PMS_P2;Temp;Humidity;BMP_temperature;BMP_pressure;BME280_temperature;BME280_humidity;BME280_pressure;Samples;Min_cycle;Max_cycle;Signal;HPM_P1;HPM_P2
2022/12/09 00:00:04;;;;;;;11.17;9.97;;;-0.30;99.90;;;;;;5039552;28;20884;-67
2022/12/09 00:02:30;;;;;;;11.80;9.43;;;-0.30;99.90;;;;;;5040821;28;20471;-67
2022/12/09 00:04:55;;;;;;;12.60;9.57;;;-0.30;99.90;;;;;;5037999;28;20442;-67
2022/12/09 00:07:21;;;;;;;12.67;10.97;;;-0.30;99.90;;;;;;5037592;28;20684;-67
2022/12/09 00:09:46;;;;;;;15.10;9.80;;;-0.40;99.90;;;;;;5039332;28;20225;-67
2022/12/09 00:12:12;;;;;;;15.03;10.73;;;-0.40;99.90;;;;;;5030284;28;20170;-67
2022/12/09 00:14:37;;;;;;;16.27;11.70;;;-0.40;99.90;;;;;;5033439;28;20193;-67
2022/12/09 00:17:03;;;;;;;13.27;10.77;;;-0.40;99.90;;;;;;5035315;28;20181;-68
2022/12/09 00:19:28;;;;;;;14.43;10.70;;;-0.40;99.90;;;;;;5031678;28;20217;-67
2022/12/09 00:21:54;;;;;;;14.23;11.07;;;-0.50;99.90;;;;;;5041258;28;20243;-68
2022/12/09 00:24:19;;;;;;;14.97;10.27;;;-0.50;99.90;;;;;;5040298;28;20236;-68
2022/12/09 00:26:45;;;;;;;11.80;9.97;;;-0.60;99.90;;;;;;5043715;28;20190;-68
2022/12/09 00:29:11;;;;;;;14.90;10.20;;;-0.70;99.90;;;;;;5035705;28;20665;-68
2022/12/09 00:31:37;;;;;;;13.50;10.80;;;-0.70;99.90;;;;;;5037353;28;20670;-68
2022/12/09 00:34:06;;;;;;;13.97;10.40;;;-0.70;99.90;;;;;;5044440;28;20204;-68
2022/12/09 00:36:32;;;;;;;14.33;10.50;;;-0.70;99.90;;;;;;5028463;28;20432;-68
2022/12/09 00:38:58;;;;;;;11.20;9.50;;;-0.70;99.90;;;;;;5032723;28;20433;-68
2022/12/09 00:41:24;;;;;;;12.87;10.07;;;-0.70;99.90;;;;;;5037818;28;20564;-68
2022/12/09 00:43:50;;;;;;;13.87;9.90;;;-0.60;99.90;;;;;;5026867;28;20472;-68
2022/12/09 00:46:16;;;;;;;13.47;9.60;;;-0.60;99.90;;;;;;5031731;28;20483;-68
2022/12/09 00:48:44;;;;;;;10.90;8.93;;;-0.60;99.90;;;;;;5027597;28;20502;-68
2022/12/09 00:51:12;;;;;;;15.97;11.17;;;-0.60;99.90;;;;;;5031079;28;20233;-67
2022/12/09 00:53:38;;;;;;;10.47;9.33;;;-0.60;99.90;;;;;;5036187;28;20519;-68
2022/12/09 00:56:04;;;;;;;11.67;9.13;;;-0.60;99.90;;;;;;5037769;28;20875;-68
2022/12/09 00:58:30;;;;;;;12.57;9.40;;;-0.50;99.90;;;;;;5041071;28;20269;-68
2022/12/09 01:00:55;;;;;;;11.97;9.10;;;-0.70;99.90;;;;;;5042254;28;20562;-68
2022/12/09 01:03:21;;;;;;;14.83;10.87;;;-0.70;99.90;;;;;;5042265;28;20556;-68
2022/12/09 01:05:47;;;;;;;13.93;9.40;;;-0.70;99.90;;;;;;5046371;28;20243;-68
2022/12/09 01:08:14;;;;;;;15.43;10.60;;;-0.70;99.90;;;;;;5042087;28;20479;-69
2022/12/09 01:10:41;;;;;;;10.47;9.03;;;-0.60;99.90;;;;;;5036784;28;20216;-67
2022/12/09 01:13:06;;;;;;;14.87;9.80;;;-0.70;99.90;;;;;;5042730;28;20806;-68
2022/12/09 01:15:32;;;;;;;11.20;8.80;;;-0.70;99.90;;;;;;5035379;28;20432;-68
2022/12/09 01:17:58;;;;;;;12.30;9.20;;;-0.80;99.90;;;;;;5032677;28;20248;-68
2022/12/09 01:20:24;;;;;;;10.90;9.27;;;-0.80;99.90;;;;;;5031622;28;20468;-67
2022/12/09 01:22:49;;;;;;;12.77;9.70;;;-0.80;99.90;;;;;;5040279;28;20205;-68
2022/12/09 01:25:15;;;;;;;11.47;8.70;;;-0.80;99.90;;;;;;5043587;28;20197;-69
2022/12/09 01:27:41;;;;;;;12.17;9.47;;;-0.80;99.90;;;;;;5031900;28;20174;-68
2022/12/09 01:30:09;;;;;;;11.30;8.43;;;-0.90;99.90;;;;;;5031906;28;20208;-68
2022/12/09 01:32:35;;;;;;;10.90;8.20;;;-0.90;99.90;;;;;;5030064;28;20194;-68
2022/12/09 01:35:01;;;;;;;9.87;8.77;;;-1.00;99.90;;;;;;5033575;28;20817;-67
2022/12/09 01:37:27;;;;;;;15.33;9.90;;;-0.90;99.90;;;;;;5031501;28;20174;-68
2022/12/09 01:39:52;;;;;;;9.10;8.07;;;-1.00;99.90;;;;;;5032472;28;20475;-68
2022/12/09 01:42:20;;;;;;;11.40;8.60;;;-1.10;99.90;;;;;;5033696;28;20610;-68
2022/12/09 01:45:20;;;;;;;10.03;9.03;;;-1.10;99.90;;;;;;5033336;28;20181;-68
2022/12/09 01:47:53;;;;;;;15.13;11.20;;;-1.10;99.90;;;;;;5032933;28;20852;-68
2022/12/09 01:50:19;;;;;;;11.93;9.23;;;-1.10;99.90;;;;;;5038075;28;21131;-68
2022/12/09 01:52:46;;;;;;;10.10;8.90;;;-1.00;99.90;;;;;;5040917;28;20443;-68
2022/12/09 01:55:12;;;;;;;10.27;8.83;;;-1.10;99.90;;;;;;5037403;28;20437;-68
2022/12/09 01:57:38;;;;;;;11.13;8.90;;;-1.10;99.90;;;;;;5036138;28;20856;-68
2022/12/09 02:00:05;;;;;;;10.50;9.10;;;-1.10;99.90;;;;;;5029442;28;20464;-68
2022/12/09 02:02:31;;;;;;;10.03;8.70;;;-1.10;99.90;;;;;;5030082;28;20281;-68
2022/12/09 02:04:57;;;;;;;11.13;9.97;;;-1.20;99.90;;;;;;5031359;28;20996;-68
2022/12/09 02:07:23;;;;;;;11.20;9.30;;;-1.10;99.90;;;;;;5030423;28;20437;-68
2022/12/09 02:09:51;;;;;;;17.20;9.13;;;-1.10;99.90;;;;;;5031073;28;20469;-68
2022/12/09 02:12:38;;;;;;;10.63;8.27;;;-1.20;99.90;;;;;;5029186;28;20186;-68
2022/12/09 02:15:08;;;;;;;13.50;10.93;;;-1.30;99.90;;;;;;5034147;28;20520;-68
2022/12/09 02:17:47;;;;;;;12.93;8.97;;;-1.40;99.90;;;;;;5040776;28;20451;-68
2022/12/09 02:20:30;;;;;;;13.83;10.20;;;-1.40;99.90;;;;;;5040215;28;20464;-69
2022/12/09 02:23:15;;;;;;;13.07;9.47;;;-1.40;99.90;;;;;;5031957;28;20459;-68
2022/12/09 02:25:51;;;;;;;7.20;6.50;;;-1.40;99.90;;;;;;5032624;28;20466;-67
2022/12/09 02:28:53;;;;;;;10.23;7.40;;;-1.50;99.90;;;;;;5033445;28;20873;-68
2022/12/09 02:31:33;;;;;;;11.50;8.30;;;-1.40;99.90;;;;;;5030126;28;20467;-68
2022/12/09 02:34:19;;;;;;;11.30;8.40;;;-1.40;99.90;;;;;;5025844;28;20448;-68
2022/12/09 02:36:45;;;;;;;16.03;9.60;;;-1.40;99.90;;;;;;5033763;28;20446;-67
2022/12/09 02:39:10;;;;;;;11.70;9.47;;;-1.30;99.90;;;;;;5034705;28;20930;-68
2022/12/09 02:41:38;;;;;;;13.80;10.00;;;-1.30;99.90;;;;;;5037926;28;20228;-68
2022/12/09 02:44:11;;;;;;;9.63;8.07;;;-1.30;99.90;;;;;;5034023;28;20675;-68
2022/12/09 02:46:38;;;;;;;8.33;7.00;;;-1.30;99.90;;;;;;5032639;28;20464;-69
2022/12/09 02:49:04;;;;;;;11.30;8.90;;;-1.30;99.90;;;;;;5027564;28;20448;-69
2022/12/09 02:51:33;;;;;;;11.93;9.03;;;-1.40;99.90;;;;;;5030006;28;20433;-68
2022/12/09 02:54:07;;;;;;;10.20;8.77;;;-1.40;99.90;;;;;;5028913;28;20236;-69
2022/12/09 02:56:33;;;;;;;10.10;7.67;;;-1.40;99.90;;;;;;5030305;28;20464;-68
2022/12/09 02:58:59;;;;;;;14.03;10.50;;;-1.40;99.90;;;;;;5027311;28;20475;-68
2022/12/09 03:01:44;;;;;;;11.63;8.50;;;-1.40;99.90;;;;;;5027895;28;20502;-68
2022/12/09 03:04:16;;;;;;;14.90;9.97;;;-1.40;99.90;;;;;;5030275;28;20186;-68
2022/12/09 03:06:48;;;;;;;12.10;9.47;;;-1.30;99.90;;;;;;5025889;28;20433;-68
2022/12/09 03:09:19;;;;;;;10.13;8.93;;;-1.40;99.90;;;;;;5029666;28;20535;-68
2022/12/09 03:11:46;;;;;;;12.20;9.53;;;-1.40;99.90;;;;;;5024169;28;20436;-68
2022/12/09 03:14:21;;;;;;;15.50;10.97;;;-1.30;99.90;;;;;;5027819;28;20570;-69
2022/12/09 03:16:58;;;;;;;12.40;9.57;;;-1.30;99.90;;;;;;5029113;28;20472;-68
2022/12/09 03:19:41;;;;;;;13.23;10.23;;;-1.30;99.90;;;;;;5028410;28;20467;-68
2022/12/09 03:22:11;;;;;;;16.23;9.43;;;-1.30;99.90;;;;;;5028947;28;20516;-68
2022/12/09 03:24:44;;;;;;;11.23;8.40;;;-1.30;99.90;;;;;;5026024;28;20455;-70
2022/12/09 03:27:15;;;;;;;12.10;9.33;;;-1.20;99.90;;;;;;5030524;28;20447;-70
2022/12/09 03:29:44;;;;;;;12.03;8.70;;;-1.30;99.90;;;;;;5021971;28;20536;-69
2022/12/09 03:32:13;;;;;;;10.13;9.10;;;-1.30;99.90;;;;;;5029684;28;20433;-67
2022/12/09 03:34:43;;;;;;;14.60;9.90;;;-1.30;99.90;;;;;;5028521;28;20519;-66
2022/12/09 03:37:10;;;;;;;13.00;9.27;;;-1.30;99.90;;;;;;5030258;28;20995;-66
2022/12/09 03:39:38;;;;;;;14.90;9.77;;;-1.30;99.90;;;;;;5029374;28;20455;-66
2022/12/09 03:42:15;;;;;;;10.60;9.50;;;-1.40;99.90;;;;;;5027219;28;20472;-67
2022/12/09 03:45:01;;;;;;;12.50;9.07;;;-1.30;99.90;;;;;;5026726;28;20444;-68
2022/12/09 03:47:27;;;;;;;15.63;9.73;;;-1.30;99.90;;;;;;5026493;28;20433;-69
2022/12/09 03:49:53;;;;;;;12.67;9.17;;;-1.40;99.90;;;;;;5043294;28;20997;-68
2022/12/09 03:52:25;;;;;;;11.33;10.23;;;-1.50;99.90;;;;;;5027949;28;20180;-68
2022/12/09 03:54:57;;;;;;;13.53;10.93;;;-1.50;99.90;;;;;;5027563;28;20444;-68
2022/12/09 03:57:23;;;;;;;11.67;9.90;;;-1.60;99.90;;;;;;5031979;28;20429;-68
2022/12/09 03:59:54;;;;;;;15.13;11.03;;;-1.50;99.90;;;;;;5027051;28;20484;-68
2022/12/09 04:02:21;;;;;;;15.40;11.67;;;-1.50;99.90;;;;;;5029874;28;20958;-68
2022/12/09 04:04:46;;;;;;;12.53;10.50;;;-1.50;99.90;;;;;;5039235;28;21125;-69
2022/12/09 04:07:12;;;;;;;11.97;10.17;;;-1.40;99.90;;;;;;5039741;28;20444;-69
2022/12/09 04:09:37;;;;;;;13.13;9.70;;;-1.40;99.90;;;;;;5039507;28;20220;-69
2022/12/09 04:12:03;;;;;;;15.47;10.10;;;-1.40;99.90;;;;;;5038634;28;20178;-68
2022/12/09 04:14:28;;;;;;;14.33;11.10;;;-1.30;99.90;;;;;;5035638;28;20185;-68
2022/12/09 04:16:54;;;;;;;15.00;11.73;;;-1.30;99.90;;;;;;5035176;28;20204;-67
2022/12/09 04:19:19;;;;;;;13.80;10.00;;;-1.30;99.90;;;;;;5036154;28;20552;-68
2022/12/09 04:21:45;;;;;;;13.57;8.60;;;-1.30;99.90;;;;;;5038292;28;20197;-68
2022/12/09 04:24:11;;;;;;;13.17;10.17;;;-1.20;99.90;;;;;;5037404;28;20180;-68
2022/12/09 04:26:36;;;;;;;15.77;9.40;;;-1.40;99.90;;;;;;5030579;28;20210;-69
2022/12/09 04:29:02;;;;;;;11.20;8.60;;;-1.40;99.90;;;;;;5033543;28;20643;-68
2022/12/09 04:31:28;;;;;;;11.30;9.50;;;-1.50;99.90;;;;;;5035115;28;20636;-67
2022/12/09 04:33:53;;;;;;;13.50;9.43;;;-1.50;99.90;;;;;;5035990;28;20456;-68
2022/12/09 04:36:20;;;;;;;10.13;8.27;;;-1.50;99.90;;;;;;5033576;28;20259;-68
2022/12/09 04:38:46;;;;;;;12.33;9.00;;;-1.40;99.90;;;;;;5035341;28;20182;-68
2022/12/09 04:41:12;;;;;;;11.13;10.00;;;-1.40;99.90;;;;;;5032653;28;20456;-68
2022/12/09 04:43:38;;;;;;;12.70;9.73;;;-1.60;99.90;;;;;;5034135;28;20839;-68
2022/12/09 04:46:06;;;;;;;14.87;9.73;;;-1.50;99.90;;;;;;5043469;28;20439;-68
2022/12/09 04:48:32;;;;;;;14.37;10.20;;;-1.50;99.90;;;;;;5031149;28;20436;-68
2022/12/09 04:50:58;;;;;;;11.27;9.80;;;-1.60;99.90;;;;;;5032123;28;20543;-68
2022/12/09 04:53:24;;;;;;;12.67;9.43;;;-1.50;99.90;;;;;;5032000;28;20611;-67
2022/12/09 04:56:09;;;;;;;11.20;10.10;;;-1.60;99.90;;;;;;5033286;28;20510;-68
2022/12/09 04:58:35;;;;;;;12.60;10.73;;;-1.50;99.90;;;;;;5029147;28;20491;-68
2022/12/09 05:01:08;;;;;;;11.80;10.50;;;-1.50;99.90;;;;;;5033878;28;20468;-68
2022/12/09 05:03:34;;;;;;;13.43;9.70;;;-1.40;99.90;;;;;;5031978;28;20555;-69
2022/12/09 05:06:03;;;;;;;11.53;9.90;;;-1.40;99.90;;;;;;5033948;28;20445;-68
2022/12/09 05:08:29;;;;;;;14.20;10.30;;;-1.30;99.90;;;;;;5032176;28;21303;-67
2022/12/09 05:10:54;;;;;;;13.70;10.60;;;-1.40;99.90;;;;;;5029049;28;20480;-68
2022/12/09 05:13:20;;;;;;;10.07;9.07;;;-1.30;99.90;;;;;;5030842;28;20532;-68
2022/12/09 05:15:46;;;;;;;11.30;9.97;;;-1.40;99.90;;;;;;5034664;28;20559;-68
2022/12/09 05:18:11;;;;;;;13.27;9.80;;;-1.40;99.90;;;;;;5032208;28;20182;-68
2022/12/09 05:20:38;;;;;;;12.07;10.67;;;-1.40;99.90;;;;;;5036089;28;20453;-69
2022/12/09 05:23:04;;;;;;;14.40;10.70;;;-1.40;99.90;;;;;;5029691;28;20175;-68
2022/12/09 05:25:30;;;;;;;11.97;9.30;;;-1.30;99.90;;;;;;5036030;28;20953;-68
2022/12/09 05:27:55;;;;;;;10.47;9.47;;;-1.30;99.90;;;;;;5031927;28;20177;-67
2022/12/09 05:30:21;;;;;;;10.53;8.97;;;-1.30;99.90;;;;;;5040149;28;20206;-68
2022/12/09 05:32:46;;;;;;;10.50;9.00;;;-1.20;99.90;;;;;;5029871;28;20174;-68
2022/12/09 05:35:12;;;;;;;12.00;9.37;;;-1.20;99.90;;;;;;5031167;28;20185;-68
2022/12/09 05:37:37;;;;;;;13.37;10.40;;;-1.20;99.90;;;;;;5031609;28;20187;-67
2022/12/09 05:40:03;;;;;;;11.53;10.33;;;-1.20;99.90;;;;;;5029891;28;20276;-67
2022/12/09 05:42:29;;;;;;;11.03;9.20;;;-1.30;99.90;;;;;;5029735;28;20289;-68
2022/12/09 05:44:55;;;;;;;11.33;9.90;;;-1.50;99.90;;;;;;5031131;28;20525;-68
2022/12/09 05:47:20;;;;;;;13.63;9.53;;;-1.50;99.90;;;;;;5030485;28;20189;-68
2022/12/09 05:49:46;;;;;;;11.33;10.00;;;-1.60;99.90;;;;;;5030825;28;20187;-68
2022/12/09 05:52:13;;;;;;;14.80;10.80;;;-1.60;99.90;;;;;;5031889;28;20184;-68
2022/12/09 05:54:39;;;;;;;14.03;11.00;;;-1.60;99.90;;;;;;5031108;28;20456;-68
2022/12/09 05:57:05;;;;;;;15.00;12.13;;;-1.70;99.90;;;;;;5026742;28;20436;-68
2022/12/09 05:59:30;;;;;;;13.90;10.63;;;-1.50;99.90;;;;;;5037268;28;20512;-67
2022/12/09 06:01:56;;;;;;;13.20;10.83;;;-1.50;99.90;;;;;;5027936;28;20210;-67
2022/12/09 06:04:21;;;;;;;11.90;9.43;;;-1.50;99.90;;;;;;5034123;28;20202;-67
2022/12/09 06:06:47;;;;;;;11.53;9.10;;;-1.30;99.90;;;;;;5029003;28;20210;-67
2022/12/09 06:09:13;;;;;;;12.37;9.23;;;-1.30;99.90;;;;;;5028863;28;20194;-67
2022/12/09 06:11:39;;;;;;;15.57;9.73;;;-1.20;99.90;;;;;;5033541;28;20655;-67
2022/12/09 06:14:07;;;;;;;14.30;9.97;;;-1.20;99.90;;;;;;5031312;28;20224;-67
2022/12/09 06:16:33;;;;;;;13.77;10.63;;;-1.10;99.90;;;;;;5027842;28;20442;-67
2022/12/09 06:18:58;;;;;;;15.13;11.33;;;-1.00;99.90;;;;;;5031890;28;20566;-67
2022/12/09 06:21:24;;;;;;;12.73;9.97;;;-1.00;99.90;;;;;;5029422;28;20190;-66
2022/12/09 06:23:50;;;;;;;12.03;9.37;;;-1.10;99.90;;;;;;5030214;28;20631;-67
2022/12/09 06:26:24;;;;;;;14.20;10.20;;;-1.10;99.90;;;;;;5030536;28;20174;-67
2022/12/09 06:28:50;;;;;;;13.57;11.20;;;-1.20;99.90;;;;;;5030864;28;20516;-67
2022/12/09 06:31:15;;;;;;;14.70;10.87;;;-1.20;99.90;;;;;;5030990;28;20860;-66
2022/12/09 06:33:41;;;;;;;12.07;10.40;;;-1.20;99.90;;;;;;5032007;28;20515;-67
2022/12/09 06:36:07;;;;;;;12.47;10.27;;;-1.10;99.90;;;;;;5030910;28;20179;-67
2022/12/09 06:38:33;;;;;;;14.60;9.97;;;-1.00;99.90;;;;;;5033177;28;20273;-67
2022/12/09 06:40:58;;;;;;;13.57;11.60;;;-1.00;99.90;;;;;;5030663;28;20468;-68
2022/12/09 06:43:24;;;;;;;11.83;9.37;;;-1.00;99.90;;;;;;5031151;28;20549;-67
2022/12/09 06:45:49;;;;;;;12.60;9.23;;;-1.00;99.90;;;;;;5027625;28;20180;-68
2022/12/09 06:48:15;;;;;;;10.70;9.50;;;-1.00;99.90;;;;;;5029244;28;20186;-68
2022/12/09 06:50:40;;;;;;;12.30;9.43;;;-1.10;99.90;;;;;;5028982;28;20205;-68
2022/12/09 06:53:06;;;;;;;14.20;10.37;;;-0.90;99.90;;;;;;5031003;28;20170;-68
2022/12/09 06:55:32;;;;;;;16.83;10.63;;;-1.00;99.90;;;;;;5029689;28;20193;-68
2022/12/09 06:57:58;;;;;;;14.03;9.80;;;-0.90;99.90;;;;;;5031076;28;20209;-68
2022/12/09 07:00:24;;;;;;;15.57;9.47;;;-0.90;99.90;;;;;;5029781;28;20291;-68
2022/12/09 07:02:50;;;;;;;10.97;9.70;;;-0.90;99.90;;;;;;5032219;28;20445;-67
2022/12/09 07:05:15;;;;;;;13.90;10.90;;;-0.80;99.90;;;;;;5031551;28;20495;-67
2022/12/09 07:07:41;;;;;;;15.30;9.70;;;-0.80;99.90;;;;;;5032127;28;20650;-69
2022/12/09 07:10:08;;;;;;;13.33;10.43;;;-0.70;99.90;;;;;;5030142;28;20205;-68
2022/12/09 07:12:33;;;;;;;12.77;9.70;;;-0.70;99.90;;;;;;5032990;28;20186;-68
2022/12/09 07:14:59;;;;;;;11.30;9.70;;;-0.60;99.90;;;;;;5034319;28;20776;-67
2022/12/09 07:17:24;;;;;;;13.47;10.37;;;-0.60;99.90;;;;;;5035424;28;20277;-67
2022/12/09 07:19:50;;;;;;;14.17;10.07;;;-0.50;99.90;;;;;;5033827;28;20224;-68
2022/12/09 07:22:15;;;;;;;12.40;11.20;;;-0.50;99.90;;;;;;5035899;28;20213;-68
2022/12/09 07:24:42;;;;;;;11.50;10.10;;;-0.40;99.90;;;;;;5032667;28;20180;-68
2022/12/09 07:27:10;;;;;;;12.30;10.00;;;-0.40;99.90;;;;;;5034728;28;20289;-68
2022/12/09 07:29:36;;;;;;;13.60;11.50;;;-0.30;99.90;;;;;;5031398;28;20953;-68
2022/12/09 07:32:02;;;;;;;14.83;11.87;;;-0.30;99.90;;;;;;5031101;28;20487;-68
2022/12/09 07:34:27;;;;;;;12.73;11.33;;;-0.20;99.90;;;;;;5028488;28;20949;-68
2022/12/09 07:36:54;;;;;;;15.20;11.50;;;-0.30;99.90;;;;;;5028490;28;20441;-68
2022/12/09 07:39:20;;;;;;;12.90;10.60;;;-0.30;99.90;;;;;;5022523;28;20232;-68
2022/12/09 07:41:55;;;;;;;14.00;10.40;;;-0.20;99.90;;;;;;5033779;28;20520;-68
2022/12/09 07:44:21;;;;;;;14.40;10.27;;;-0.20;99.90;;;;;;5028210;28;20973;-68
2022/12/09 07:46:46;;;;;;;17.03;12.23;;;0.80;99.90;;;;;;5034160;28;20428;-67
2022/12/09 07:49:12;;;;;;;16.63;11.20;;;-0.20;99.90;;;;;;5031356;28;20435;-68
2022/12/09 07:51:38;;;;;;;19.60;12.53;;;0.00;99.90;;;;;;5029139;28;20214;-68
2022/12/09 07:54:04;;;;;;;13.80;11.30;;;0.00;99.90;;;;;;5029061;28;20554;-68
2022/12/09 07:56:29;;;;;;;12.93;11.60;;;-0.10;99.90;;;;;;5026973;28;20658;-68
2022/12/09 07:58:55;;;;;;;13.90;11.80;;;0.10;99.90;;;;;;5029867;28;20182;-69
2022/12/09 08:01:24;;;;;;;18.73;10.90;;;0.10;99.90;;;;;;5027719;28;20194;-69
2022/12/09 08:03:51;;;;;;;17.77;13.30;;;0.20;99.90;;;;;;5027873;28;20432;-70
2022/12/09 08:06:19;;;;;;;21.70;14.27;;;0.30;99.90;;;;;;5029633;28;20871;-69
2022/12/09 08:08:46;;;;;;;19.20;13.63;;;0.40;99.90;;;;;;5029600;28;20498;-69
2022/12/09 08:11:22;;;;;;;19.57;12.97;;;0.50;99.90;;;;;;5030615;28;20500;-69
2022/12/09 08:13:51;;;;;;;20.37;14.20;;;0.60;99.90;;;;;;5022573;28;20436;-68
2022/12/09 08:16:19;;;;;;;21.43;13.60;;;0.70;99.90;;;;;;5029555;28;20429;-68
2022/12/09 08:18:45;;;;;;;19.40;12.80;;;1.10;99.90;;;;;;5024774;28;20460;-67
2022/12/09 08:21:15;;;;;;;15.73;12.03;;;1.10;99.90;;;;;;5030925;28;20479;-68
2022/12/09 08:23:41;;;;;;;13.80;10.90;;;1.20;99.90;;;;;;5034164;28;20433;-68
2022/12/09 08:26:08;;;;;;;15.57;11.63;;;1.30;99.90;;;;;;5028926;28;20946;-68
2022/12/09 08:28:34;;;;;;;14.47;12.90;;;1.30;99.90;;;;;;5029836;28;20433;-67
2022/12/09 08:31:06;;;;;;;15.23;11.40;;;1.50;99.90;;;;;;5027950;28;20966;-68
2022/12/09 08:33:33;;;;;;;14.87;11.50;;;1.60;99.90;;;;;;5034610;28;20529;-68
2022/12/09 08:35:59;;;;;;;18.37;12.70;;;1.80;99.90;;;;;;5030526;28;20424;-68
2022/12/09 08:38:40;;;;;;;22.90;14.27;;;1.90;99.90;;;;;;5035454;28;20428;-68
2022/12/09 08:41:41;;;;;;;27.13;17.30;;;1.80;99.90;;;;;;5026828;28;20460;-69
2022/12/09 08:44:11;;;;;;;19.63;13.10;;;2.40;99.90;;;;;;5031660;28;20450;-68
2022/12/09 08:46:38;;;;;;;19.87;13.83;;;2.10;99.90;;;;;;5032705;28;20424;-68
2022/12/09 08:49:05;;;;;;;13.87;11.70;;;2.30;99.90;;;;;;5031207;28;20432;-69
2022/12/09 08:51:31;;;;;;;15.23;11.57;;;2.30;99.90;;;;;;5026600;28;20440;-67
2022/12/09 08:53:58;;;;;;;16.80;13.53;;;2.30;99.90;;;;;;5026893;28;20448;-67
2022/12/09 08:56:24;;;;;;;21.60;13.17;;;2.20;99.90;;;;;;5027410;28;20540;-67
2022/12/09 08:58:50;;;;;;;19.90;14.27;;;2.30;99.90;;;;;;5030007;28;20524;-68
2022/12/09 09:01:23;;;;;;;15.63;11.97;;;2.20;99.90;;;;;;5039540;28;20706;-67
2022/12/09 09:03:49;;;;;;;17.57;13.67;;;2.10;99.90;;;;;;5025799;28;20508;-67
2022/12/09 09:06:18;;;;;;;14.50;12.57;;;2.20;99.90;;;;;;5036773;28;20512;-67
2022/12/09 09:08:44;;;;;;;20.83;13.57;;;2.30;99.90;;;;;;5030392;28;20171;-67
2022/12/09 09:11:12;;;;;;;19.50;14.30;;;2.30;99.90;;;;;;5007660;28;20822;-67
2022/12/09 09:13:40;;;;;;;18.50;12.50;;;2.20;99.90;;;;;;5011676;28;20519;-67
2022/12/09 09:16:15;;;;;;;13.97;12.00;;;2.10;99.90;;;;;;5031838;28;20523;-67
2022/12/09 09:18:41;;;;;;;17.57;13.57;;;2.10;99.90;;;;;;5036076;28;20436;-67
2022/12/09 09:21:08;;;;;;;16.73;13.00;;;2.10;99.90;;;;;;5032612;28;20548;-67
2022/12/09 09:23:34;;;;;;;18.57;13.83;;;2.20;99.90;;;;;;5030735;28;20441;-68
2022/12/09 09:26:00;;;;;;;18.93;11.53;;;2.20;99.90;;;;;;5028017;28;20431;-68
2022/12/09 09:28:25;;;;;;;15.47;13.20;;;2.10;99.90;;;;;;5029504;28;20182;-68
2022/12/09 09:30:58;;;;;;;20.00;14.47;;;2.00;99.90;;;;;;5027181;28;20218;-68
2022/12/09 09:33:24;;;;;;;18.13;13.37;;;2.00;99.90;;;;;;5029898;28;20174;-68
2022/12/09 09:35:57;;;;;;;20.13;13.30;;;2.10;99.90;;;;;;5034634;28;20440;-67
2022/12/09 09:38:24;;;;;;;16.80;12.80;;;2.10;99.90;;;;;;5030470;28;20270;-68
2022/12/09 09:40:50;;;;;;;15.90;12.70;;;2.10;99.90;;;;;;5029839;28;20921;-68
2022/12/09 09:43:18;;;;;;;15.20;13.00;;;2.20;99.90;;;;;;5033101;28;20487;-68
2022/12/09 09:45:44;;;;;;;17.77;12.57;;;2.30;99.90;;;;;;5031106;28;20882;-68
2022/12/09 09:48:17;;;;;;;21.70;14.17;;;2.30;99.90;;;;;;5031784;28;20468;-68
2022/12/09 09:50:49;;;;;;;17.90;14.30;;;2.40;99.90;;;;;;5030045;28;20456;-67
2022/12/09 09:53:24;;;;;;;22.40;16.03;;;2.50;99.90;;;;;;5036864;28;20432;-68
2022/12/09 09:56:03;;;;;;;21.70;15.17;;;2.40;99.90;;;;;;5029535;28;20459;-69
2022/12/09 09:59:15;;;;;;;19.53;15.10;;;2.40;99.90;;;;;;5046025;28;20432;-67
2022/12/09 10:01:45;;;;;;;17.87;12.97;;;2.40;99.90;;;;;;5020379;28;20815;-68
2022/12/09 10:04:25;;;;;;;15.10;12.30;;;2.30;99.90;;;;;;5030382;28;20437;-67
2022/12/09 10:07:04;;;;;;;22.77;13.43;;;2.30;99.90;;;;;;5027383;28;20440;-68
2022/12/09 10:09:42;;;;;;;20.30;14.77;;;2.30;99.90;;;;;;5027115;28;20468;-67
2022/12/09 10:12:25;;;;;;;19.67;13.90;;;2.30;99.90;;;;;;5028810;28;20442;-68
2022/12/09 10:14:58;;;;;;;14.97;13.17;;;2.40;99.90;;;;;;5024576;28;20449;-68
2022/12/09 10:17:40;;;;;;;15.10;12.90;;;2.50;99.90;;;;;;5030381;28;20528;-68
2022/12/09 10:20:18;;;;;;;17.27;13.70;;;2.60;99.90;;;;;;5028003;28;20476;-68
2022/12/09 10:22:50;;;;;;;16.17;13.40;;;2.60;99.90;;;;;;5034397;28;20491;-68
2022/12/09 10:25:28;;;;;;;17.30;12.70;;;2.70;99.90;;;;;;5030318;28;20432;-68
2022/12/09 10:28:19;;;;;;;18.03;13.40;;;2.70;99.90;;;;;;5025209;28;20432;-68
2022/12/09 10:30:45;;;;;;;14.67;13.10;;;2.60;99.90;;;;;;5026164;28;20461;-68
2022/12/09 10:33:17;;;;;;;16.63;13.37;;;2.60;99.90;;;;;;5027543;28;20802;-68
2022/12/09 10:35:43;;;;;;;22.00;14.23;;;2.70;99.90;;;;;;5030683;28;20170;-68
2022/12/09 10:38:11;;;;;;;16.77;12.80;;;2.70;99.90;;;;;;5030909;28;20957;-67
2022/12/09 10:41:04;;;;;;;18.50;13.10;;;2.80;99.90;;;;;;5027777;28;20544;-67
2022/12/09 10:43:37;;;;;;;17.00;13.80;;;2.90;99.90;;;;;;5022405;28;20439;-68
2022/12/09 10:46:20;;;;;;;23.20;13.90;;;3.00;99.90;;;;;;5028619;28;20483;-68
2022/12/09 10:48:45;;;;;;;19.63;15.37;;;3.00;99.90;;;;;;5024589;28;20440;-67
2022/12/09 10:51:31;;;;;;;22.47;15.53;;;3.00;99.90;;;;;;5026438;28;20457;-67
2022/12/09 10:54:10;;;;;;;18.00;14.50;;;2.80;99.90;;;;;;5031573;28;20205;-67
2022/12/09 10:56:38;;;;;;;22.77;14.40;;;2.70;99.90;;;;;;5033109;28;20444;-68
2022/12/09 10:59:17;;;;;;;19.10;14.97;;;2.60;99.90;;;;;;5033949;28;20451;-69
2022/12/09 11:02:09;;;;;;;17.73;14.20;;;2.60;99.90;;;;;;5024195;28;20468;-68
2022/12/09 11:04:41;;;;;;;21.07;14.53;;;2.60;99.90;;;;;;5027712;28;20437;-68
2022/12/09 11:07:06;;;;;;;19.97;15.03;;;2.60;99.90;;;;;;5030347;28;20508;-68
2022/12/09 11:09:38;;;;;;;20.30;14.20;;;2.70;99.90;;;;;;5030333;28;20487;-67
2022/12/09 11:12:24;;;;;;;17.30;13.87;;;2.70;99.90;;;;;;5028889;28;20190;-67
2022/12/09 11:14:52;;;;;;;17.20;13.73;;;2.80;99.90;;;;;;5028813;28;20555;-67
2022/12/09 11:17:22;;;;;;;18.93;14.03;;;2.70;99.90;;;;;;5032760;28;20433;-68
2022/12/09 11:19:53;;;;;;;22.70;14.80;;;2.70;99.90;;;;;;5026745;28;20455;-68
2022/12/09 11:22:22;;;;;;;19.53;15.83;;;2.60;99.90;;;;;;5025168;28;20519;-68
2022/12/09 11:24:48;;;;;;;22.63;14.97;;;2.60;99.90;;;;;;5027307;28;20437;-68
2022/12/09 11:27:31;;;;;;;19.63;14.83;;;2.70;99.90;;;;;;5028831;28;20452;-66
2022/12/09 11:30:07;;;;;;;21.53;16.60;;;2.70;99.90;;;;;;5030955;28;20514;-69
2022/12/09 11:32:47;;;;;;;26.13;16.60;;;2.80;99.90;;;;;;5032332;28;20444;-69
2022/12/09 11:35:18;;;;;;;19.77;16.40;;;2.80;99.90;;;;;;5032961;28;20467;-68
2022/12/09 11:37:44;;;;;;;23.43;14.70;;;2.90;99.90;;;;;;5029032;28;20531;-67
2022/12/09 11:40:18;;;;;;;22.57;15.53;;;3.00;99.90;;;;;;5033459;28;20901;-67
2022/12/09 11:42:49;;;;;;;16.57;13.83;;;2.90;99.90;;;;;;5025627;28;20202;-68
2022/12/09 11:45:18;;;;;;;24.70;16.70;;;3.00;99.90;;;;;;5037821;28;20864;-69
2022/12/09 11:47:45;;;;;;;27.70;17.67;;;3.10;99.90;;;;;;5039066;28;20956;-68
2022/12/09 11:50:31;;;;;;;20.27;14.80;;;3.10;99.90;;;;;;5034102;28;20511;-67
2022/12/09 11:53:12;;;;;;;20.70;14.90;;;3.30;99.90;;;;;;5024912;28;20821;-68
2022/12/09 11:55:44;;;;;;;22.17;15.13;;;3.30;99.90;;;;;;5027327;28;20510;-68
2022/12/09 11:58:32;;;;;;;19.70;15.10;;;3.30;99.90;;;;;;5029700;28;20946;-67
2022/12/09 12:01:29;;;;;;;20.17;16.70;;;3.40;99.90;;;;;;5023394;28;20832;-68
2022/12/09 12:04:02;;;;;;;24.83;16.00;;;3.30;99.90;;;;;;5028411;28;20897;-67
2022/12/09 12:06:52;;;;;;;19.17;17.10;;;3.20;99.90;;;;;;5028628;28;20440;-67
2022/12/09 12:09:18;;;;;;;21.00;16.73;;;3.30;99.90;;;;;;5029841;28;20475;-67
2022/12/09 12:11:51;;;;;;;21.77;15.73;;;3.10;99.90;;;;;;5023683;28;20989;-67
2022/12/09 12:14:23;;;;;;;24.70;16.17;;;3.00;99.90;;;;;;5031055;28;20196;-67
2022/12/09 12:17:14;;;;;;;21.70;16.03;;;2.80;99.90;;;;;;5029941;28;20515;-67
2022/12/09 12:19:42;;;;;;;27.23;17.03;;;2.80;99.90;;;;;;5026995;28;20803;-67
2022/12/09 12:22:41;;;;;;;27.03;16.70;;;2.90;99.90;;;;;;5028651;28;20619;-67
2022/12/09 12:25:19;;;;;;;24.33;17.20;;;2.90;99.90;;;;;;5024282;28;20508;-67
2022/12/09 12:28:27;;;;;;;23.23;15.80;;;2.90;99.90;;;;;;5023073;28;20793;-67
2022/12/09 12:31:11;;;;;;;23.80;17.00;;;2.70;99.90;;;;;;5026597;28;20463;-66
2022/12/09 12:34:01;;;;;;;23.27;17.60;;;2.70;99.90;;;;;;5031011;28;20426;-67
2022/12/09 12:36:34;;;;;;;23.17;18.37;;;2.60;99.90;;;;;;5033020;28;20429;-67
2022/12/09 12:39:23;;;;;;;28.17;17.30;;;2.60;99.90;;;;;;5026693;28;20518;-67
2022/12/09 12:42:03;;;;;;;20.20;16.17;;;2.60;99.90;;;;;;5028949;28;20812;-67
2022/12/09 12:47:57;;;;;;;20.40;16.00;;;2.80;99.90;;;;;;5033746;28;20432;-67
2022/12/09 12:50:29;;;;;;;22.33;16.40;;;2.60;99.90;;;;;;5025215;28;20514;-67
2022/12/09 12:52:54;;;;;;;23.90;17.67;;;2.70;99.90;;;;;;5032601;28;20999;-67